createdAt,value
2022-10-06T14:02:38.415Z,101816.72
2022-10-06T14:05:46.576Z,101815.34
2022-10-06T14:11:14.720Z,101829.00
2022-10-06T14:14:11.160Z,101831.50
2022-10-06T14:16:52.019Z,101833.00
2022-10-06T14:19:46.506Z,101840.69
2022-10-06T14:22:39.670Z,101831.50
2022-10-06T14:25:32.765Z,101834.09
2022-10-06T14:28:13.263Z,101832.28
2022-10-06T14:30:41.655Z,101832.09
2022-10-06T14:33:10.687Z,101832.91
2022-10-06T14:35:41.177Z,101830.91
2022-10-06T14:38:09.322Z,101841.13
2022-10-06T14:40:42.315Z,101850.59
2022-10-06T14:43:10.738Z,101850.34
2022-10-06T14:45:45.679Z,101853.69
2022-10-06T14:51:36.564Z,101857.66
2022-10-06T15:00:11.660Z,101878.97
2022-10-06T15:03:08.393Z,101887.88
2022-10-06T15:06:05.934Z,101893.50
2022-10-06T15:08:37.279Z,101891.75
2022-10-06T15:11:05.231Z,101898.16
2022-10-06T15:13:36.287Z,101894.09
2022-10-06T15:16:05.628Z,101901.94
2022-10-06T15:19:05.281Z,101898.91
2022-10-06T15:34:24.442Z,101904.81
2022-10-06T15:44:12.076Z,101907.09
2022-10-06T15:47:08.614Z,101911.94
2022-10-06T15:52:35.553Z,101902.31
2022-10-06T15:55:03.759Z,101909.91
2022-10-06T15:57:32.348Z,101903.78
2022-10-06T16:00:03.286Z,101912.25
2022-10-06T16:02:36.163Z,101912.75
2022-10-06T16:05:04.651Z,101905.25
2022-10-06T16:07:34.760Z,101905.31
2022-10-06T16:10:05.575Z,101909.81
2022-10-06T16:12:33.843Z,101900.59
2022-10-06T16:15:02.032Z,101904.53
2022-10-06T16:17:32.825Z,101909.75
2022-10-06T16:20:01.466Z,101902.69
2022-10-06T16:22:32.785Z,101901.13
2022-10-06T16:25:08.572Z,101904.41
2022-10-06T16:27:36.784Z,101902.38
2022-10-06T16:30:08.594Z,101908.94
2022-10-06T16:32:47.366Z,101916.31
2022-10-06T16:35:18.556Z,101910.72
2022-10-06T16:37:55.547Z,101910.66
2022-10-06T16:40:24.032Z,101911.22
2022-10-06T16:42:58.085Z,101914.19
2022-10-06T16:45:26.403Z,101913.28
2022-10-06T16:47:54.694Z,101904.38
2022-10-06T16:50:25.920Z,101908.72
2022-10-06T16:52:54.157Z,101907.97
2022-10-06T16:55:22.413Z,101907.69
2022-10-06T16:57:50.780Z,101901.28
2022-10-06T17:00:19.341Z,101911.25
2022-10-06T17:02:47.722Z,101913.63
2022-10-06T17:05:16.109Z,101909.94
2022-10-06T17:07:46.555Z,101908.56
2022-10-06T17:10:21.820Z,101907.19
2022-10-06T17:12:50.143Z,101897.25
2022-10-06T17:15:21.390Z,101900.50
2022-10-06T17:17:52.304Z,101900.16
2022-10-06T17:20:20.642Z,101894.50
2022-10-06T17:22:49.490Z,101892.47
2022-10-06T17:25:19.754Z,101896.69
2022-10-06T17:27:48.023Z,101895.22
2022-10-06T17:30:17.733Z,101892.44
2022-10-06T17:32:49.168Z,101901.41
2022-10-06T17:35:20.068Z,101897.41
2022-10-06T17:37:51.280Z,101897.25
2022-10-06T17:40:19.507Z,101900.19
2022-10-06T17:42:47.710Z,101898.19
2022-10-06T17:45:21.084Z,101897.44
2022-10-06T17:47:50.279Z,101894.47
2022-10-06T17:50:18.542Z,101889.00
2022-10-06T17:52:48.054Z,101897.66
2022-10-06T17:55:17.487Z,101897.63
2022-10-06T17:57:45.746Z,101893.78
2022-10-06T18:00:18.901Z,101890.38
2022-10-06T18:02:49.017Z,101890.00
2022-10-06T18:05:17.604Z,101894.97
2022-10-06T18:07:46.457Z,101895.22
2022-10-06T18:10:33.305Z,101888.41
2022-10-06T18:13:01.489Z,101890.94
2022-10-06T18:15:29.833Z,101888.75
2022-10-06T18:17:58.094Z,101890.97
2022-10-06T18:20:30.817Z,101884.97
2022-10-06T18:22:59.046Z,101889.16
2022-10-06T18:25:34.053Z,101880.91
2022-10-06T18:28:02.474Z,101889.44
2022-10-06T18:30:31.824Z,101883.72
2022-10-06T18:36:06.801Z,101884.72
2022-10-06T18:38:46.633Z,101874.00
2022-10-06T18:41:20.543Z,101880.38
2022-10-06T18:43:49.298Z,101874.09
2022-10-06T18:46:37.763Z,101864.06
2022-10-06T18:49:14.391Z,101864.28
2022-10-06T18:51:58.083Z,101856.00
2022-10-06T18:54:30.967Z,101853.53
2022-10-06T18:56:59.545Z,101850.03
2022-10-06T18:59:34.333Z,101847.09
2022-10-06T19:02:12.749Z,101847.19
2022-10-06T19:04:49.632Z,101846.06
2022-10-06T19:07:17.848Z,101838.06
2022-10-06T19:09:47.051Z,101840.28
2022-10-06T19:12:15.466Z,101842.84
2022-10-06T19:14:48.204Z,101833.94
2022-10-06T19:17:17.119Z,101840.75
2022-10-06T19:19:51.860Z,101836.75
2022-10-06T19:22:24.599Z,101843.06
2022-10-06T19:24:53.511Z,101841.31
2022-10-06T19:27:28.907Z,101832.75
2022-10-06T19:29:57.499Z,101833.63
2022-10-06T19:32:29.211Z,101833.25
2022-10-06T19:34:59.514Z,101832.84
2022-10-06T19:37:32.574Z,101830.41
2022-10-06T19:40:00.750Z,101828.94
2022-10-06T19:42:47.515Z,101823.56
2022-10-06T19:45:16.982Z,101819.13
2022-10-06T19:47:54.615Z,101812.91
2022-10-06T19:50:22.958Z,101810.41
2022-10-06T19:52:52.495Z,101808.75
2022-10-06T19:55:23.847Z,101806.19
2022-10-06T19:57:52.513Z,101800.13
2022-10-06T20:00:21.114Z,101801.34
2022-10-06T20:02:49.447Z,101794.91
2022-10-06T20:05:20.880Z,101793.41
2022-10-06T20:07:49.385Z,101791.38
2022-10-06T20:10:17.836Z,101795.59
2022-10-06T20:12:46.863Z,101788.41
2022-10-06T20:15:20.655Z,101782.53
2022-10-06T20:17:48.901Z,101786.19
2022-10-06T20:20:21.869Z,101775.25
2022-10-06T20:22:50.731Z,101775.34
2022-10-06T20:25:18.937Z,101771.41
2022-10-06T20:27:51.792Z,101769.72
2022-10-06T20:30:20.042Z,101761.59
2022-10-06T20:32:53.944Z,101755.97
2022-10-06T20:35:22.221Z,101750.41
2022-10-06T20:37:50.434Z,101750.13
2022-10-06T20:40:36.789Z,101743.00
2022-10-06T20:43:10.620Z,101742.59
2022-10-06T20:45:41.633Z,101741.25
2022-10-06T20:48:17.733Z,101728.75
2022-10-06T20:50:57.019Z,101737.00
2022-10-06T20:53:32.273Z,101733.63
2022-10-06T20:56:08.188Z,101731.38
2022-10-06T20:58:37.035Z,101725.13
2022-10-06T21:01:09.379Z,101719.22
2022-10-06T21:03:44.447Z,101714.09
2022-10-06T21:06:16.701Z,101713.41
2022-10-06T21:08:46.498Z,101714.72
2022-10-06T21:11:21.953Z,101702.84
2022-10-06T21:13:54.835Z,101710.22
2022-10-06T21:16:30.303Z,101709.16
2022-10-06T21:18:59.656Z,101712.84
2022-10-06T21:21:28.039Z,101697.69
2022-10-06T21:24:17.215Z,101696.34
2022-10-06T21:26:45.483Z,101699.78
2022-10-06T21:29:16.971Z,101701.00
2022-10-06T21:31:47.063Z,101692.56
2022-10-06T21:34:15.600Z,101688.84
2022-10-06T21:36:46.720Z,101691.84
2022-10-06T21:39:18.074Z,101685.91
2022-10-06T21:41:46.291Z,101684.34
2022-10-06T21:44:19.642Z,101694.03
2022-10-06T21:46:56.748Z,101682.94
2022-10-06T21:49:26.564Z,101682.81
2022-10-06T21:51:57.286Z,101673.75
2022-10-06T21:54:25.341Z,101675.91
2022-10-06T21:56:53.801Z,101673.69
2022-10-06T21:59:22.211Z,101674.00
2022-10-06T22:01:54.620Z,101679.97
2022-10-06T22:04:22.798Z,101676.78
2022-10-06T22:06:51.519Z,101675.06
2022-10-06T22:09:21.126Z,101673.84
2022-10-06T22:11:52.964Z,101682.94
2022-10-06T22:14:21.545Z,101682.03
2022-10-06T22:22:46.467Z,101680.53
2022-10-06T22:25:18.790Z,101676.50
2022-10-06T22:28:15.776Z,101675.75
